sensor_id;sensor_type;location;lat;lon;timestamp;temperature;humidity
35258;DHT22;21385;50.878;8.050;2023-11-22T00:02:01;6.50;99.90
35258;DHT22;21385;50.878;8.050;2023-11-22T00:04:27;6.40;99.90
35258;DHT22;21385;50.878;8.050;2023-11-22T00:06:53;6.40;99.90
35258;DHT22;21385;50.878;8.050;2023-11-22T00:09:18;6.30;99.90
35258;DHT22;21385;50.878;8.050;2023-11-22T00:11:48;6.30;99.90
35258;DHT22;21385;50.878;8.050;2023-11-22T00:14:14;6.30;99.90
35258;DHT22;21385;50.878;8.050;2023-11-22T00:16:39;6.20;99.90
35258;DHT22;21385;50.878;8.050;2023-11-22T00:19:05;6.20;99.90
35258;DHT22;21385;50.878;8.050;2023-11-22T00:21:32;6.30;99.90
35258;DHT22;21385;50.878;8.050;2023-11-22T00:23:57;6.30;99.90
35258;DHT22;21385;50.878;8.050;2023-11-22T00:26:23;6.30;99.90
35258;DHT22;21385;50.878;8.050;2023-11-22T00:28:49;6.30;99.90
35258;DHT22;21385;50.878;8.050;2023-11-22T00:31:15;6.30;99.90
35258;DHT22;21385;50.878;8.050;2023-11-22T00:33:40;6.30;99.90
35258;DHT22;21385;50.878;8.050;2023-11-22T00:36:06;6.30;99.90
35258;DHT22;21385;50.878;8.050;2023-11-22T00:38:33;6.30;99.90
35258;DHT22;21385;50.878;8.050;2023-11-22T00:41:01;6.30;99.90
35258;DHT22;21385;50.878;8.050;2023-11-22T00:43:27;6.30;99.90
35258;DHT22;21385;50.878;8.050;2023-11-22T00:45:53;6.30;99.90
35258;DHT22;21385;50.878;8.050;2023-11-22T00:48:19;6.20;99.90
35258;DHT22;21385;50.878;8.050;2023-11-22T00:50:44;6.20;99.90
35258;DHT22;21385;50.878;8.050;2023-11-22T00:53:10;6.20;99.90
35258;DHT22;21385;50.878;8.050;2023-11-22T00:55:35;6.20;99.90
35258;DHT22;21385;50.878;8.050;2023-11-22T00:58:01;6.20;99.90
35258;DHT22;21385;50.878;8.050;2023-11-22T01:00:30;6.20;99.90
35258;DHT22;21385;50.878;8.050;2023-11-22T01:02:56;6.30;99.90
35258;DHT22;21385;50.878;8.050;2023-11-22T01:05:21;6.30;99.90
35258;DHT22;21385;50.878;8.050;2023-11-22T01:07:47;6.30;99.90
35258;DHT22;21385;50.878;8.050;2023-11-22T01:10:13;6.30;99.90
35258;DHT22;21385;50.878;8.050;2023-11-22T01:12:39;6.30;99.90
35258;DHT22;21385;50.878;8.050;2023-11-22T01:15:05;6.30;99.90
35258;DHT22;21385;50.878;8.050;2023-11-22T01:17:31;6.30;99.90
35258;DHT22;21385;50.878;8.050;2023-11-22T01:19:56;6.30;99.90
35258;DHT22;21385;50.878;8.050;2023-11-22T01:22:24;6.40;99.90
35258;DHT22;21385;50.878;8.050;2023-11-22T01:24:49;6.30;99.90
35258;DHT22;21385;50.878;8.050;2023-11-22T01:27:15;6.30;99.90
35258;DHT22;21385;50.878;8.050;2023-11-22T01:29:40;6.30;99.90
35258;DHT22;21385;50.878;8.050;2023-11-22T01:32:08;6.40;99.90
35258;DHT22;21385;50.878;8.050;2023-11-22T01:34:34;6.40;99.90
35258;DHT22;21385;50.878;8.050;2023-11-22T01:37:00;6.40;99.90
35258;DHT22;21385;50.878;8.050;2023-11-22T01:39:26;6.40;99.90
35258;DHT22;21385;50.878;8.050;2023-11-22T01:41:52;6.40;99.90
35258;DHT22;21385;50.878;8.050;2023-11-22T01:44:17;6.40;99.90
35258;DHT22;21385;50.878;8.050;2023-11-22T01:46:46;6.30;99.90
35258;DHT22;21385;50.878;8.050;2023-11-22T01:49:12;6.30;99.90
35258;DHT22;21385;50.878;8.050;2023-11-22T01:51:38;6.30;99.90
35258;DHT22;21385;50.878;8.050;2023-11-22T01:54:06;6.30;99.90
35258;DHT22;21385;50.878;8.050;2023-11-22T01:56:35;6.20;99.90
35258;DHT22;21385;50.878;8.050;2023-11-22T01:59:02;6.20;99.90
35258;DHT22;21385;50.878;8.050;2023-11-22T02:01:29;6.20;99.90
35258;DHT22;21385;50.878;8.050;2023-11-22T02:03:54;6.10;99.90
35258;DHT22;21385;50.878;8.050;2023-11-22T02:06:20;6.10;99.90
35258;DHT22;21385;50.878;8.050;2023-11-22T02:08:49;6.20;99.90
35258;DHT22;21385;50.878;8.050;2023-11-22T02:11:17;6.20;99.90
35258;DHT22;21385;50.878;8.050;2023-11-22T02:13:48;6.20;99.90
35258;DHT22;21385;50.878;8.050;2023-11-22T02:16:15;6.20;99.90
35258;DHT22;21385;50.878;8.050;2023-11-22T02:18:44;6.20;99.90
35258;DHT22;21385;50.878;8.050;2023-11-22T02:21:09;6.20;99.90
35258;DHT22;21385;50.878;8.050;2023-11-22T02:23:36;6.10;99.90
35258;DHT22;21385;50.878;8.050;2023-11-22T02:26:02;6.10;99.90
35258;DHT22;21385;50.878;8.050;2023-11-22T02:28:28;6.10;99.90
35258;DHT22;21385;50.878;8.050;2023-11-22T02:30:53;6.10;99.90
35258;DHT22;21385;50.878;8.050;2023-11-22T02:33:20;6.00;99.90
35258;DHT22;21385;50.878;8.050;2023-11-22T02:35:45;6.10;99.90
35258;DHT22;21385;50.878;8.050;2023-11-22T02:38:11;6.00;99.90
35258;DHT22;21385;50.878;8.050;2023-11-22T02:40:37;5.90;99.90
35258;DHT22;21385;50.878;8.050;2023-11-22T02:43:02;5.90;99.90
35258;DHT22;21385;50.878;8.050;2023-11-22T02:45:33;6.00;99.90
35258;DHT22;21385;50.878;8.050;2023-11-22T02:47:59;6.00;99.90
35258;DHT22;21385;50.878;8.050;2023-11-22T02:50:27;5.90;99.90
35258;DHT22;21385;50.878;8.050;2023-11-22T02:52:53;5.90;99.90
35258;DHT22;21385;50.878;8.050;2023-11-22T02:55:18;5.80;99.90
35258;DHT22;21385;50.878;8.050;2023-11-22T02:57:45;5.70;99.90
35258;DHT22;21385;50.878;8.050;2023-11-22T03:00:11;5.70;99.90
35258;DHT22;21385;50.878;8.050;2023-11-22T03:02:40;5.60;99.90
35258;DHT22;21385;50.878;8.050;2023-11-22T03:05:07;5.50;99.90
35258;DHT22;21385;50.878;8.050;2023-11-22T03:07:33;5.50;99.90
35258;DHT22;21385;50.878;8.050;2023-11-22T03:10:00;5.40;99.90
35258;DHT22;21385;50.878;8.050;2023-11-22T03:12:26;5.30;99.90
35258;DHT22;21385;50.878;8.050;2023-11-22T03:14:52;5.30;99.90
35258;DHT22;21385;50.878;8.050;2023-11-22T03:17:19;5.20;99.90
35258;DHT22;21385;50.878;8.050;2023-11-22T03:19:45;5.10;99.90
35258;DHT22;21385;50.878;8.050;2023-11-22T03:22:11;5.00;99.90
35258;DHT22;21385;50.878;8.050;2023-11-22T03:24:38;5.00;99.90
35258;DHT22;21385;50.878;8.050;2023-11-22T03:27:03;4.90;99.90
35258;DHT22;21385;50.878;8.050;2023-11-22T03:29:29;4.80;99.90
35258;DHT22;21385;50.878;8.050;2023-11-22T03:31:55;4.80;99.90
35258;DHT22;21385;50.878;8.050;2023-11-22T03:34:21;4.80;99.90
35258;DHT22;21385;50.878;8.050;2023-11-22T03:36:46;4.70;99.90
35258;DHT22;21385;50.878;8.050;2023-11-22T03:39:12;4.60;99.90
35258;DHT22;21385;50.878;8.050;2023-11-22T03:41:40;4.60;99.90
35258;DHT22;21385;50.878;8.050;2023-11-22T03:44:05;4.50;99.90
35258;DHT22;21385;50.878;8.050;2023-11-22T03:46:38;4.50;99.90
35258;DHT22;21385;50.878;8.050;2023-11-22T03:49:06;4.40;99.90
35258;DHT22;21385;50.878;8.050;2023-11-22T03:51:33;4.30;99.90
35258;DHT22;21385;50.878;8.050;2023-11-22T03:53:59;4.30;99.90
35258;DHT22;21385;50.878;8.050;2023-11-22T03:56:25;4.20;99.90
35258;DHT22;21385;50.878;8.050;2023-11-22T03:58:50;4.10;99.90
35258;DHT22;21385;50.878;8.050;2023-11-22T04:01:16;4.10;99.90
35258;DHT22;21385;50.878;8.050;2023-11-22T04:03:42;4.00;99.90
35258;DHT22;21385;50.878;8.050;2023-11-22T04:06:08;3.90;99.90
35258;DHT22;21385;50.878;8.050;2023-11-22T04:08:33;3.80;99.90
35258;DHT22;21385;50.878;8.050;2023-11-22T04:10:59;3.80;99.90
35258;DHT22;21385;50.878;8.050;2023-11-22T04:13:24;3.70;99.90
35258;DHT22;21385;50.878;8.050;2023-11-22T04:15:51;3.60;99.90
35258;DHT22;21385;50.878;8.050;2023-11-22T04:18:16;3.60;99.90
35258;DHT22;21385;50.878;8.050;2023-11-22T04:20:42;3.50;99.90
35258;DHT22;21385;50.878;8.050;2023-11-22T04:23:08;3.50;99.90
35258;DHT22;21385;50.878;8.050;2023-11-22T04:25:36;3.50;99.90
35258;DHT22;21385;50.878;8.050;2023-11-22T04:28:02;3.50;99.90
35258;DHT22;21385;50.878;8.050;2023-11-22T04:30:28;3.40;99.90
35258;DHT22;21385;50.878;8.050;2023-11-22T04:32:53;3.40;99.90
35258;DHT22;21385;50.878;8.050;2023-11-22T04:35:19;3.40;99.90
35258;DHT22;21385;50.878;8.050;2023-11-22T04:37:44;3.30;99.90
35258;DHT22;21385;50.878;8.050;2023-11-22T04:40:13;3.30;99.90
35258;DHT22;21385;50.878;8.050;2023-11-22T04:42:39;3.20;99.90
35258;DHT22;21385;50.878;8.050;2023-11-22T04:45:06;3.20;99.90
35258;DHT22;21385;50.878;8.050;2023-11-22T04:47:32;3.10;99.90
35258;DHT22;21385;50.878;8.050;2023-11-22T04:49:57;3.00;99.90
35258;DHT22;21385;50.878;8.050;2023-11-22T04:52:23;3.00;99.90
35258;DHT22;21385;50.878;8.050;2023-11-22T04:54:49;3.00;99.90
35258;DHT22;21385;50.878;8.050;2023-11-22T04:57:14;2.90;99.90
35258;DHT22;21385;50.878;8.050;2023-11-22T04:59:40;2.90;99.90
35258;DHT22;21385;50.878;8.050;2023-11-22T05:02:06;2.90;99.90
35258;DHT22;21385;50.878;8.050;2023-11-22T05:04:32;2.90;99.90
35258;DHT22;21385;50.878;8.050;2023-11-22T05:06:58;2.80;99.90
35258;DHT22;21385;50.878;8.050;2023-11-22T05:09:24;2.80;99.90
35258;DHT22;21385;50.878;8.050;2023-11-22T05:11:50;2.80;99.90
35258;DHT22;21385;50.878;8.050;2023-11-22T05:14:17;2.80;99.90
35258;DHT22;21385;50.878;8.050;2023-11-22T05:16:43;2.80;99.90
35258;DHT22;21385;50.878;8.050;2023-11-22T05:19:08;2.70;99.90
35258;DHT22;21385;50.878;8.050;2023-11-22T05:21:34;2.60;99.90
35258;DHT22;21385;50.878;8.050;2023-11-22T05:23:59;2.60;99.90
35258;DHT22;21385;50.878;8.050;2023-11-22T05:26:25;2.50;99.90
35258;DHT22;21385;50.878;8.050;2023-11-22T05:28:52;2.50;99.90
35258;DHT22;21385;50.878;8.050;2023-11-22T05:31:20;2.50;99.90
35258;DHT22;21385;50.878;8.050;2023-11-22T05:33:46;2.50;99.90
35258;DHT22;21385;50.878;8.050;2023-11-22T05:36:11;2.40;99.90
35258;DHT22;21385;50.878;8.050;2023-11-22T05:38:37;2.40;99.90
35258;DHT22;21385;50.878;8.050;2023-11-22T05:41:03;2.30;99.90
35258;DHT22;21385;50.878;8.050;2023-11-22T05:43:29;2.30;99.90
35258;DHT22;21385;50.878;8.050;2023-11-22T05:45:55;2.30;99.90
35258;DHT22;21385;50.878;8.050;2023-11-22T05:48:20;2.20;99.90
35258;DHT22;21385;50.878;8.050;2023-11-22T05:50:46;2.20;99.90
35258;DHT22;21385;50.878;8.050;2023-11-22T05:53:12;2.20;99.90
35258;DHT22;21385;50.878;8.050;2023-11-22T05:55:38;2.20;99.90
35258;DHT22;21385;50.878;8.050;2023-11-22T05:58:04;2.20;99.90
35258;DHT22;21385;50.878;8.050;2023-11-22T06:00:29;2.20;99.90
35258;DHT22;21385;50.878;8.050;2023-11-22T06:02:55;2.20;99.90
35258;DHT22;21385;50.878;8.050;2023-11-22T06:05:21;2.10;99.90
35258;DHT22;21385;50.878;8.050;2023-11-22T06:07:47;2.10;99.90
35258;DHT22;21385;50.878;8.050;2023-11-22T06:10:13;2.10;99.90
35258;DHT22;21385;50.878;8.050;2023-11-22T06:12:40;2.00;99.90
35258;DHT22;21385;50.878;8.050;2023-11-22T06:15:06;1.90;99.90
35258;DHT22;21385;50.878;8.050;2023-11-22T06:17:31;2.00;99.90
35258;DHT22;21385;50.878;8.050;2023-11-22T06:19:57;1.90;99.90
35258;DHT22;21385;50.878;8.050;2023-11-22T06:22:23;2.00;99.90
35258;DHT22;21385;50.878;8.050;2023-11-22T06:24:48;1.90;99.90
35258;DHT22;21385;50.878;8.050;2023-11-22T06:27:14;1.90;99.90
35258;DHT22;21385;50.878;8.050;2023-11-22T06:29:41;1.90;99.90
35258;DHT22;21385;50.878;8.050;2023-11-22T06:32:08;1.90;99.90
35258;DHT22;21385;50.878;8.050;2023-11-22T06:34:35;1.80;99.90
35258;DHT22;21385;50.878;8.050;2023-11-22T06:37:02;1.80;99.90
35258;DHT22;21385;50.878;8.050;2023-11-22T06:39:27;1.80;99.90
35258;DHT22;21385;50.878;8.050;2023-11-22T06:41:53;1.70;99.90
35258;DHT22;21385;50.878;8.050;2023-11-22T06:44:18;1.70;99.90
35258;DHT22;21385;50.878;8.050;2023-11-22T06:46:44;1.70;99.90
35258;DHT22;21385;50.878;8.050;2023-11-22T06:49:10;1.70;99.90
35258;DHT22;21385;50.878;8.050;2023-11-22T06:51:35;1.70;99.90
35258;DHT22;21385;50.878;8.050;2023-11-22T06:54:02;1.70;99.90
35258;DHT22;21385;50.878;8.050;2023-11-22T06:56:28;1.70;99.90
35258;DHT22;21385;50.878;8.050;2023-11-22T06:58:54;1.70;99.90
35258;DHT22;21385;50.878;8.050;2023-11-22T07:01:23;1.70;99.90
35258;DHT22;21385;50.878;8.050;2023-11-22T07:03:51;1.70;99.90
35258;DHT22;21385;50.878;8.050;2023-11-22T07:06:17;1.70;99.90
35258;DHT22;21385;50.878;8.050;2023-11-22T07:08:44;1.70;99.90
35258;DHT22;21385;50.878;8.050;2023-11-22T07:11:11;1.80;99.90
35258;DHT22;21385;50.878;8.050;2023-11-22T07:13:36;1.70;99.90
35258;DHT22;21385;50.878;8.050;2023-11-22T07:16:04;1.70;99.90
35258;DHT22;21385;50.878;8.050;2023-11-22T07:18:30;1.70;99.90
35258;DHT22;21385;50.878;8.050;2023-11-22T07:20:57;1.70;99.90
35258;DHT22;21385;50.878;8.050;2023-11-22T07:23:24;1.70;99.90
35258;DHT22;21385;50.878;8.050;2023-11-22T07:25:52;1.70;99.90
35258;DHT22;21385;50.878;8.050;2023-11-22T07:28:18;1.70;99.90
35258;DHT22;21385;50.878;8.050;2023-11-22T07:30:44;1.70;99.90
35258;DHT22;21385;50.878;8.050;2023-11-22T07:33:10;1.70;99.90
35258;DHT22;21385;50.878;8.050;2023-11-22T07:35:36;1.60;99.90
35258;DHT22;21385;50.878;8.050;2023-11-22T07:38:02;1.60;99.90
35258;DHT22;21385;50.878;8.050;2023-11-22T07:40:29;1.70;99.90
35258;DHT22;21385;50.878;8.050;2023-11-22T07:42:54;1.70;99.90
35258;DHT22;21385;50.878;8.050;2023-11-22T07:45:20;1.70;99.90
35258;DHT22;21385;50.878;8.050;2023-11-22T07:47:46;1.80;99.90
35258;DHT22;21385;50.878;8.050;2023-11-22T07:50:12;1.90;99.90
35258;DHT22;21385;50.878;8.050;2023-11-22T07:52:38;1.90;99.90
35258;DHT22;21385;50.878;8.050;2023-11-22T07:55:05;1.90;99.90
35258;DHT22;21385;50.878;8.050;2023-11-22T07:57:34;2.00;99.90
35258;DHT22;21385;50.878;8.050;2023-11-22T07:59:59;2.10;99.90
35258;DHT22;21385;50.878;8.050;2023-11-22T08:02:26;2.10;99.90
35258;DHT22;21385;50.878;8.050;2023-11-22T08:04:52;2.20;99.90
35258;DHT22;21385;50.878;8.050;2023-11-22T08:07:18;2.20;99.90
35258;DHT22;21385;50.878;8.050;2023-11-22T08:09:44;2.20;99.90
35258;DHT22;21385;50.878;8.050;2023-11-22T08:12:10;2.30;99.90
35258;DHT22;21385;50.878;8.050;2023-11-22T08:14:37;2.30;99.90
35258;DHT22;21385;50.878;8.050;2023-11-22T08:17:03;2.40;99.90
35258;DHT22;21385;50.878;8.050;2023-11-22T08:19:29;2.50;99.90
35258;DHT22;21385;50.878;8.050;2023-11-22T08:21:55;2.60;99.90
35258;DHT22;21385;50.878;8.050;2023-11-22T08:24:20;2.70;99.90
35258;DHT22;21385;50.878;8.050;2023-11-22T08:26:46;2.80;99.90
35258;DHT22;21385;50.878;8.050;2023-11-22T08:29:12;2.90;99.90
35258;DHT22;21385;50.878;8.050;2023-11-22T08:31:40;2.90;99.90
35258;DHT22;21385;50.878;8.050;2023-11-22T08:34:06;3.40;99.90
35258;DHT22;21385;50.878;8.050;2023-11-22T08:36:33;3.60;99.90
35258;DHT22;21385;50.878;8.050;2023-11-22T08:39:00;3.70;99.90
35258;DHT22;21385;50.878;8.050;2023-11-22T08:41:27;3.70;99.90
35258;DHT22;21385;50.878;8.050;2023-11-22T08:43:52;3.70;99.90
35258;DHT22;21385;50.878;8.050;2023-11-22T08:46:18;3.70;99.90
35258;DHT22;21385;50.878;8.050;2023-11-22T08:48:43;3.80;99.90
35258;DHT22;21385;50.878;8.050;2023-11-22T08:51:09;3.80;99.90
35258;DHT22;21385;50.878;8.050;2023-11-22T08:53:38;3.90;99.90
35258;DHT22;21385;50.878;8.050;2023-11-22T08:56:04;3.90;99.90
35258;DHT22;21385;50.878;8.050;2023-11-22T08:58:31;4.00;99.90
35258;DHT22;21385;50.878;8.050;2023-11-22T09:00:57;4.00;99.90
35258;DHT22;21385;50.878;8.050;2023-11-22T09:03:25;4.10;99.90
35258;DHT22;21385;50.878;8.050;2023-11-22T09:05:52;4.20;99.90
35258;DHT22;21385;50.878;8.050;2023-11-22T09:08:19;4.30;99.90
35258;DHT22;21385;50.878;8.050;2023-11-22T09:10:46;4.50;99.90
35258;DHT22;21385;50.878;8.050;2023-11-22T09:13:11;4.60;99.90
35258;DHT22;21385;50.878;8.050;2023-11-22T09:15:40;4.70;99.90
35258;DHT22;21385;50.878;8.050;2023-11-22T09:18:07;4.80;99.90
35258;DHT22;21385;50.878;8.050;2023-11-22T09:20:33;4.80;99.90
35258;DHT22;21385;50.878;8.050;2023-11-22T09:22:59;4.90;99.90
35258;DHT22;21385;50.878;8.050;2023-11-22T09:25:26;5.00;99.90
35258;DHT22;21385;50.878;8.050;2023-11-22T09:27:54;5.10;99.90
35258;DHT22;21385;50.878;8.050;2023-11-22T09:30:23;5.20;99.90
35258;DHT22;21385;50.878;8.050;2023-11-22T09:33:01;5.30;99.90
35258;DHT22;21385;50.878;8.050;2023-11-22T09:35:27;5.30;99.90
35258;DHT22;21385;50.878;8.050;2023-11-22T09:38:00;7.00;99.90
35258;DHT22;21385;50.878;8.050;2023-11-22T09:40:27;9.00;99.90
35258;DHT22;21385;50.878;8.050;2023-11-22T09:42:55;9.10;99.90
35258;DHT22;21385;50.878;8.050;2023-11-22T09:45:21;8.70;99.90
35258;DHT22;21385;50.878;8.050;2023-11-22T09:47:47;8.20;99.90
35258;DHT22;21385;50.878;8.050;2023-11-22T09:51:01;7.80;99.90
35258;DHT22;21385;50.878;8.050;2023-11-22T09:53:11;7.30;99.90
35258;DHT22;21385;50.878;8.050;2023-11-22T09:55:41;7.00;99.90
35258;DHT22;21385;50.878;8.050;2023-11-22T09:58:11;6.90;99.90
35258;DHT22;21385;50.878;8.050;2023-11-22T10:00:39;6.90;99.90
35258;DHT22;21385;50.878;8.050;2023-11-22T10:03:06;7.00;99.90
35258;DHT22;21385;50.878;8.050;2023-11-22T10:05:32;7.00;99.90
35258;DHT22;21385;50.878;8.050;2023-11-22T10:07:58;7.10;99.90
35258;DHT22;21385;50.878;8.050;2023-11-22T10:10:24;7.20;99.90
35258;DHT22;21385;50.878;8.050;2023-11-22T10:12:54;7.30;99.90
35258;DHT22;21385;50.878;8.050;2023-11-22T10:15:21;7.40;99.90
35258;DHT22;21385;50.878;8.050;2023-11-22T10:17:58;7.50;99.90
35258;DHT22;21385;50.878;8.050;2023-11-22T10:20:44;7.40;98.50
35258;DHT22;21385;50.878;8.050;2023-11-22T10:23:15;7.30;99.90
35258;DHT22;21385;50.878;8.050;2023-11-22T10:25:45;7.30;99.90
35258;DHT22;21385;50.878;8.050;2023-11-22T10:28:13;7.20;99.90
35258;DHT22;21385;50.878;8.050;2023-11-22T10:30:39;7.20;99.90
35258;DHT22;21385;50.878;8.050;2023-11-22T10:33:06;7.10;99.90
35258;DHT22;21385;50.878;8.050;2023-11-22T10:35:31;7.10;99.90
35258;DHT22;21385;50.878;8.050;2023-11-22T10:37:59;7.10;99.90
35258;DHT22;21385;50.878;8.050;2023-11-22T10:40:29;7.10;99.90
35258;DHT22;21385;50.878;8.050;2023-11-22T10:42:56;7.20;99.90
35258;DHT22;21385;50.878;8.050;2023-11-22T10:45:23;7.30;99.90
35258;DHT22;21385;50.878;8.050;2023-11-22T10:47:52;7.40;99.90
35258;DHT22;21385;50.878;8.050;2023-11-22T10:50:20;7.50;99.90
35258;DHT22;21385;50.878;8.050;2023-11-22T10:52:47;7.50;97.20
35258;DHT22;21385;50.878;8.050;2023-11-22T10:55:19;7.50;99.00
35258;DHT22;21385;50.878;8.050;2023-11-22T10:57:46;7.60;98.10
35258;DHT22;21385;50.878;8.050;2023-11-22T11:00:18;7.70;99.90
35258;DHT22;21385;50.878;8.050;2023-11-22T11:02:45;7.80;99.90
35258;DHT22;21385;50.878;8.050;2023-11-22T11:05:21;8.00;99.90
35258;DHT22;21385;50.878;8.050;2023-11-22T11:07:49;8.30;99.90
35258;DHT22;21385;50.878;8.050;2023-11-22T11:10:20;8.50;99.90
35258;DHT22;21385;50.878;8.050;2023-11-22T11:12:46;8.70;99.70
35258;DHT22;21385;50.878;8.050;2023-11-22T11:15:13;8.80;99.70
35258;DHT22;21385;50.878;8.050;2023-11-22T11:17:40;9.00;98.90
35258;DHT22;21385;50.878;8.050;2023-11-22T11:20:06;9.00;97.30
35258;DHT22;21385;50.878;8.050;2023-11-22T11:22:32;9.00;94.50
35258;DHT22;21385;50.878;8.050;2023-11-22T11:25:04;9.00;95.30
35258;DHT22;21385;50.878;8.050;2023-11-22T11:27:33;9.10;97.20
35258;DHT22;21385;50.878;8.050;2023-11-22T11:30:08;9.20;97.10
35258;DHT22;21385;50.878;8.050;2023-11-22T11:32:47;9.20;96.60
35258;DHT22;21385;50.878;8.050;2023-11-22T11:35:17;9.30;94.80
35258;DHT22;21385;50.878;8.050;2023-11-22T11:37:46;9.20;94.90
35258;DHT22;21385;50.878;8.050;2023-11-22T11:40:31;9.20;95.50
35258;DHT22;21385;50.878;8.050;2023-11-22T11:42:57;9.20;95.90
35258;DHT22;21385;50.878;8.050;2023-11-22T11:45:22;9.30;96.60
35258;DHT22;21385;50.878;8.050;2023-11-22T11:47:48;9.30;96.70
35258;DHT22;21385;50.878;8.050;2023-11-22T11:50:14;9.40;96.80
35258;DHT22;21385;50.878;8.050;2023-11-22T11:52:40;9.40;97.00
35258;DHT22;21385;50.878;8.050;2023-11-22T11:55:06;9.50;96.10
35258;DHT22;21385;50.878;8.050;2023-11-22T11:57:32;9.50;95.30
35258;DHT22;21385;50.878;8.050;2023-11-22T11:59:57;9.50;94.10
35258;DHT22;21385;50.878;8.050;2023-11-22T12:02:24;9.50;96.40
35258;DHT22;21385;50.878;8.050;2023-11-22T12:04:50;9.50;95.40
35258;DHT22;21385;50.878;8.050;2023-11-22T12:07:16;9.60;94.30
35258;DHT22;21385;50.878;8.050;2023-11-22T12:09:41;9.70;93.30
35258;DHT22;21385;50.878;8.050;2023-11-22T12:12:07;9.60;93.00
35258;DHT22;21385;50.878;8.050;2023-11-22T12:14:32;9.60;93.90
35258;DHT22;21385;50.878;8.050;2023-11-22T12:16:59;9.50;91.00
35258;DHT22;21385;50.878;8.050;2023-11-22T12:19:27;9.50;93.00
35258;DHT22;21385;50.878;8.050;2023-11-22T12:21:53;9.50;90.50
35258;DHT22;21385;50.878;8.050;2023-11-22T12:24:19;9.30;90.60
35258;DHT22;21385;50.878;8.050;2023-11-22T12:26:46;9.20;90.30
35258;DHT22;21385;50.878;8.050;2023-11-22T12:29:13;9.10;92.80
35258;DHT22;21385;50.878;8.050;2023-11-22T12:31:44;9.20;92.70
35258;DHT22;21385;50.878;8.050;2023-11-22T12:34:12;9.20;90.40
35258;DHT22;21385;50.878;8.050;2023-11-22T12:36:38;9.30;88.40
35258;DHT22;21385;50.878;8.050;2023-11-22T12:39:11;9.40;90.50
35258;DHT22;21385;50.878;8.050;2023-11-22T12:41:50;9.60;88.70
35258;DHT22;21385;50.878;8.050;2023-11-22T12:44:19;9.60;85.80
35258;DHT22;21385;50.878;8.050;2023-11-22T12:46:52;9.70;83.50
35258;DHT22;21385;50.878;8.050;2023-11-22T12:49:25;9.80;84.30
35258;DHT22;21385;50.878;8.050;2023-11-22T12:51:52;10.10;82.60
35258;DHT22;21385;50.878;8.050;2023-11-22T12:54:19;10.40;82.70
35258;DHT22;21385;50.878;8.050;2023-11-22T12:56:52;10.70;83.50
35258;DHT22;21385;50.878;8.050;2023-11-22T12:59:23;10.90;77.90
35258;DHT22;21385;50.878;8.050;2023-11-22T13:01:49;11.00;74.90
35258;DHT22;21385;50.878;8.050;2023-11-22T13:04:14;11.10;77.20
35258;DHT22;21385;50.878;8.050;2023-11-22T13:06:41;11.30;74.90
35258;DHT22;21385;50.878;8.050;2023-11-22T13:09:07;11.30;73.20
35258;DHT22;21385;50.878;8.050;2023-11-22T13:11:32;11.40;68.50
35258;DHT22;21385;50.878;8.050;2023-11-22T13:13:58;11.30;67.40
35258;DHT22;21385;50.878;8.050;2023-11-22T13:16:24;11.40;68.60
35258;DHT22;21385;50.878;8.050;2023-11-22T13:18:49;11.60;68.60
35258;DHT22;21385;50.878;8.050;2023-11-22T13:21:15;11.80;68.20
35258;DHT22;21385;50.878;8.050;2023-11-22T13:23:41;11.90;64.20
35258;DHT22;21385;50.878;8.050;2023-11-22T13:26:06;11.90;66.10
35258;DHT22;21385;50.878;8.050;2023-11-22T13:28:34;11.90;66.00
35258;DHT22;21385;50.878;8.050;2023-11-22T13:31:00;11.90;63.70
35258;DHT22;21385;50.878;8.050;2023-11-22T13:33:26;11.80;60.40
35258;DHT22;21385;50.878;8.050;2023-11-22T13:35:53;11.70;57.90
35258;DHT22;21385;50.878;8.050;2023-11-22T13:38:19;11.50;61.80
35258;DHT22;21385;50.878;8.050;2023-11-22T13:40:44;11.40;58.60
35258;DHT22;21385;50.878;8.050;2023-11-22T13:43:11;11.40;59.70
35258;DHT22;21385;50.878;8.050;2023-11-22T13:45:42;11.50;61.20
35258;DHT22;21385;50.878;8.050;2023-11-22T13:48:08;11.80;60.00
35258;DHT22;21385;50.878;8.050;2023-11-22T13:50:35;12.20;59.00
35258;DHT22;21385;50.878;8.050;2023-11-22T13:53:01;12.30;58.30
35258;DHT22;21385;50.878;8.050;2023-11-22T13:55:29;12.40;57.30
35258;DHT22;21385;50.878;8.050;2023-11-22T13:57:56;12.50;58.70
35258;DHT22;21385;50.878;8.050;2023-11-22T14:00:24;12.70;57.70
35258;DHT22;21385;50.878;8.050;2023-11-22T14:02:56;12.80;54.40
35258;DHT22;21385;50.878;8.050;2023-11-22T14:05:23;12.70;54.40
35258;DHT22;21385;50.878;8.050;2023-11-22T14:07:49;12.70;55.90
35258;DHT22;21385;50.878;8.050;2023-11-22T14:10:17;12.70;55.10
35258;DHT22;21385;50.878;8.050;2023-11-22T14:12:44;12.80;54.40
35258;DHT22;21385;50.878;8.050;2023-11-22T14:15:11;12.80;54.60
35258;DHT22;21385;50.878;8.050;2023-11-22T14:17:36;12.80;55.30
35258;DHT22;21385;50.878;8.050;2023-11-22T14:20:08;12.70;54.40
35258;DHT22;21385;50.878;8.050;2023-11-22T14:22:37;12.40;56.60
35258;DHT22;21385;50.878;8.050;2023-11-22T14:25:04;12.20;57.20
35258;DHT22;21385;50.878;8.050;2023-11-22T14:27:33;12.10;65.50
35258;DHT22;21385;50.878;8.050;2023-11-22T14:29:59;11.80;57.90
35258;DHT22;21385;50.878;8.050;2023-11-22T14:32:25;11.50;59.10
35258;DHT22;21385;50.878;8.050;2023-11-22T14:34:51;11.20;59.00
35258;DHT22;21385;50.878;8.050;2023-11-22T14:37:18;10.90;59.40
35258;DHT22;21385;50.878;8.050;2023-11-22T14:39:45;10.40;60.70
35258;DHT22;21385;50.878;8.050;2023-11-22T14:42:10;9.90;63.20
35258;DHT22;21385;50.878;8.050;2023-11-22T14:44:37;9.40;64.40
35258;DHT22;21385;50.878;8.050;2023-11-22T14:47:03;9.10;65.70
35258;DHT22;21385;50.878;8.050;2023-11-22T14:49:34;8.80;64.70
35258;DHT22;21385;50.878;8.050;2023-11-22T14:52:00;8.40;67.90
35258;DHT22;21385;50.878;8.050;2023-11-22T14:54:27;8.00;68.70
35258;DHT22;21385;50.878;8.050;2023-11-22T14:56:53;7.80;72.70
35258;DHT22;21385;50.878;8.050;2023-11-22T14:59:21;7.60;73.80
35258;DHT22;21385;50.878;8.050;2023-11-22T15:01:46;7.50;74.80
35258;DHT22;21385;50.878;8.050;2023-11-22T15:04:13;7.30;76.90
35258;DHT22;21385;50.878;8.050;2023-11-22T15:06:40;7.10;78.20
35258;DHT22;21385;50.878;8.050;2023-11-22T15:09:06;7.00;80.50
35258;DHT22;21385;50.878;8.050;2023-11-22T15:11:36;6.90;82.60
35258;DHT22;21385;50.878;8.050;2023-11-22T15:14:03;6.80;83.60
35258;DHT22;21385;50.878;8.050;2023-11-22T15:16:28;6.70;85.50
35258;DHT22;21385;50.878;8.050;2023-11-22T15:18:54;6.60;85.70
35258;DHT22;21385;50.878;8.050;2023-11-22T15:21:20;6.50;88.40
35258;DHT22;21385;50.878;8.050;2023-11-22T15:23:45;6.30;88.50
35258;DHT22;21385;50.878;8.050;2023-11-22T15:26:12;6.20;90.00
35258;DHT22;21385;50.878;8.050;2023-11-22T15:28:38;6.30;90.50
35258;DHT22;21385;50.878;8.050;2023-11-22T15:31:03;6.30;91.20
35258;DHT22;21385;50.878;8.050;2023-11-22T15:33:29;6.30;92.00
35258;DHT22;21385;50.878;8.050;2023-11-22T15:35:55;6.30;91.50
35258;DHT22;21385;50.878;8.050;2023-11-22T15:38:20;6.20;92.30
35258;DHT22;21385;50.878;8.050;2023-11-22T15:40:48;6.20;91.90
35258;DHT22;21385;50.878;8.050;2023-11-22T15:43:14;6.20;92.20